Terminal Aerodrome Forecast
Issued by NWS

Home | Current Version | Previous Version | Text Only | Print | Product List | Glossary On
Versions: 1 2 3 4 5 6 7 8 9 10 11 12 13 14 15 16 17 18 19 20 21 22 23 24 25 26 27 28 29
000
FTUS42 KMFL 261739
TAFFXE
TAF
KFXE 261739Z 2618/2718 10015KT P6SM SCT030 SCT250
     FM270200 12007KT P6SM FEW030 FEW250
     FM270500 VRB05KT P6SM FEW025 FEW250
     FM271500 13010KT P6SM FEW030 SCT250=

USA.gov is the U.S. government's official web portal to all federal, state and local government web resources and services.